createdAt,value
2022-11-03T00:01:38.494Z,8.84
2022-11-03T00:04:07.479Z,8.65
2022-11-03T00:06:37.111Z,8.79
2022-11-03T00:09:07.317Z,8.52
2022-11-03T00:11:36.031Z,8.59
2022-11-03T00:14:05.135Z,8.65
2022-11-03T00:16:33.572Z,8.55
2022-11-03T00:19:01.510Z,8.60
2022-11-03T00:21:29.824Z,8.59
2022-11-03T00:23:59.276Z,8.51
2022-11-03T00:26:28.665Z,8.49
2022-11-03T00:28:58.078Z,8.45
2022-11-03T00:31:28.072Z,8.35
2022-11-03T00:33:56.735Z,8.38
2022-11-03T00:36:26.570Z,8.18
2022-11-03T00:38:55.110Z,8.34
2022-11-03T00:41:25.146Z,8.33
2022-11-03T00:43:54.018Z,8.32
2022-11-03T00:46:23.710Z,8.27
2022-11-03T00:48:52.076Z,8.17
2022-11-03T00:51:21.841Z,8.12
2022-11-03T00:53:52.366Z,8.23
2022-11-03T00:56:22.236Z,8.19
2022-11-03T00:58:52.818Z,8.15
2022-11-03T01:01:22.777Z,8.13
2022-11-03T01:04:10.936Z,8.15
2022-11-03T01:06:54.423Z,8.13
2022-11-03T01:09:24.032Z,8.13
2022-11-03T01:11:57.702Z,8.04
2022-11-03T01:14:30.639Z,8.10
2022-11-03T01:16:59.084Z,8.10
2022-11-03T01:19:26.910Z,8.09
2022-11-03T01:21:54.988Z,8.00
2022-11-03T01:24:23.248Z,8.04
2022-11-03T01:26:51.372Z,8.02
2022-11-03T01:29:19.801Z,8.01
2022-11-03T01:31:49.113Z,7.98
2022-11-03T01:34:18.974Z,7.95
2022-11-03T01:36:47.431Z,7.93
2022-11-03T01:39:17.082Z,7.91
2022-11-03T01:41:46.605Z,7.63
2022-11-03T01:44:33.559Z,7.89
2022-11-03T01:47:08.751Z,7.80
2022-11-03T01:49:41.929Z,7.74
2022-11-03T01:52:14.991Z,7.79
2022-11-03T01:54:48.960Z,7.78
2022-11-03T01:57:21.265Z,7.65
2022-11-03T01:59:55.657Z,7.48
2022-11-03T02:02:25.026Z,7.73
2022-11-03T02:04:58.989Z,7.72
2022-11-03T02:07:34.241Z,7.70
2022-11-03T02:10:03.237Z,7.68
2022-11-03T02:12:34.766Z,7.67
2022-11-03T02:15:06.097Z,7.45
2022-11-03T02:17:40.359Z,7.44
2022-11-03T02:20:13.605Z,7.58
2022-11-03T02:23:12.803Z,7.56
2022-11-03T02:25:52.250Z,7.55
2022-11-03T02:28:23.497Z,7.53
2022-11-03T02:31:00.588Z,6.94
2022-11-03T02:33:38.765Z,7.36
2022-11-03T02:36:14.566Z,7.29
2022-11-03T02:38:51.829Z,7.33
2022-11-03T02:41:23.386Z,7.17
2022-11-03T02:43:57.907Z,7.37
2022-11-03T02:46:28.002Z,7.31
2022-11-03T02:48:57.742Z,7.21
2022-11-03T02:51:25.986Z,7.29
2022-11-03T02:54:03.949Z,6.94
2022-11-03T02:56:37.196Z,7.31
2022-11-03T02:59:10.969Z,7.29
2022-11-03T03:01:48.284Z,7.26
2022-11-03T03:04:21.447Z,7.24
2022-11-03T03:06:55.224Z,7.20
2022-11-03T03:09:27.259Z,7.10
2022-11-03T03:12:00.197Z,7.18
2022-11-03T03:14:36.079Z,7.16
2022-11-03T03:17:08.964Z,7.05
2022-11-03T03:19:49.145Z,7.15
2022-11-03T03:22:25.814Z,7.15
2022-11-03T03:25:00.939Z,7.14
2022-11-03T03:27:34.542Z,7.11
2022-11-03T03:30:10.393Z,7.11
2022-11-03T03:32:41.576Z,7.06
2022-11-03T03:35:17.249Z,7.19
2022-11-03T03:37:52.088Z,7.14
2022-11-03T03:40:31.503Z,7.29
2022-11-03T03:43:02.686Z,7.33
2022-11-03T03:45:32.616Z,7.38
2022-11-03T03:48:01.438Z,7.42
2022-11-03T03:50:36.077Z,7.46
2022-11-03T03:53:06.484Z,7.40
2022-11-03T03:55:38.912Z,7.51
2022-11-03T03:58:10.904Z,7.50
2022-11-03T04:00:40.300Z,7.52
2022-11-03T04:03:14.231Z,7.48
2022-11-03T04:05:42.180Z,7.45
2022-11-03T04:08:10.116Z,7.20
2022-11-03T04:10:37.962Z,7.37
2022-11-03T04:13:24.478Z,7.35
2022-11-03T04:16:11.224Z,7.30
2022-11-03T04:18:53.132Z,7.10
2022-11-03T04:21:38.561Z,7.26
2022-11-03T04:24:07.391Z,7.26
2022-11-03T04:26:35.307Z,7.27
2022-11-03T04:29:03.336Z,7.27
2022-11-03T04:31:36.495Z,7.24
2022-11-03T04:34:06.153Z,7.30
2022-11-03T04:36:34.069Z,7.15
2022-11-03T04:39:02.215Z,7.23
2022-11-03T04:41:34.169Z,7.28
2022-11-03T04:44:02.401Z,7.27
2022-11-03T04:46:32.344Z,7.19
2022-11-03T04:49:03.019Z,7.25
2022-11-03T04:51:34.312Z,7.21
2022-11-03T04:54:05.087Z,7.16
2022-11-03T04:56:33.802Z,7.03
2022-11-03T04:59:01.623Z,7.06
2022-11-03T05:01:31.069Z,7.06
2022-11-03T05:04:00.639Z,7.08
2022-11-03T05:06:30.858Z,7.06
2022-11-03T05:09:01.811Z,7.04
2022-11-03T05:11:33.572Z,7.00
2022-11-03T05:14:03.559Z,6.97
2022-11-03T05:16:32.820Z,6.91
2022-11-03T05:19:02.253Z,6.88
2022-11-03T05:21:30.490Z,6.89
2022-11-03T05:24:02.469Z,6.82
2022-11-03T05:26:35.237Z,6.61
2022-11-03T05:29:04.823Z,6.79
2022-11-03T05:31:36.386Z,6.76
2022-11-03T05:34:22.097Z,6.73
2022-11-03T05:36:50.066Z,6.69
2022-11-03T05:39:29.708Z,6.68
2022-11-03T05:42:00.039Z,6.67
2022-11-03T05:44:33.168Z,6.46
2022-11-03T05:47:05.953Z,6.60
2022-11-03T05:49:37.539Z,6.52
2022-11-03T05:52:07.048Z,6.58
2022-11-03T05:54:35.930Z,6.54
2022-11-03T05:57:06.144Z,6.52
2022-11-03T05:59:34.214Z,6.41
2022-11-03T06:02:02.433Z,6.48
2022-11-03T06:04:33.608Z,6.36
2022-11-03T06:07:05.651Z,6.40
2022-11-03T06:09:35.095Z,6.44
2022-11-03T06:12:06.673Z,6.51
2022-11-03T06:14:37.576Z,6.50
2022-11-03T06:17:07.670Z,6.48
2022-11-03T06:19:39.281Z,6.46
2022-11-03T06:22:15.592Z,6.44
2022-11-03T06:24:43.885Z,6.46
2022-11-03T06:27:15.479Z,6.45
2022-11-03T06:29:47.160Z,6.44
2022-11-03T06:32:15.064Z,6.44
2022-11-03T06:34:44.945Z,6.32
2022-11-03T06:37:20.921Z,6.44
2022-11-03T06:39:49.854Z,6.44
2022-11-03T06:42:21.728Z,6.21
2022-11-03T06:44:51.363Z,6.40
2022-11-03T06:47:24.472Z,6.18
2022-11-03T06:49:55.428Z,6.43
2022-11-03T06:52:30.884Z,6.44
2022-11-03T06:55:17.726Z,6.44
2022-11-03T06:57:48.274Z,6.43
2022-11-03T07:00:34.190Z,6.43
2022-11-03T07:03:09.082Z,6.46
2022-11-03T07:05:38.187Z,6.16
2022-11-03T07:08:18.506Z,6.50
2022-11-03T07:10:46.576Z,6.56
2022-11-03T07:13:16.767Z,6.49
2022-11-03T07:15:45.815Z,6.67
2022-11-03T07:18:20.950Z,6.74
2022-11-03T07:20:49.290Z,6.53
2022-11-03T07:23:20.995Z,6.97
2022-11-03T07:25:53.466Z,6.99
2022-11-03T07:28:23.109Z,7.43
2022-11-03T07:30:51.162Z,7.61
2022-11-03T07:33:23.721Z,7.76
2022-11-03T07:36:14.235Z,7.83
2022-11-03T07:38:43.566Z,8.01
2022-11-03T07:41:18.379Z,8.10
2022-11-03T07:43:54.736Z,8.13
2022-11-03T07:46:24.530Z,8.47
2022-11-03T07:48:56.768Z,8.74
2022-11-03T07:51:26.905Z,9.02
2022-11-03T07:54:00.059Z,9.20
2022-11-03T07:56:33.298Z,9.46
2022-11-03T07:59:05.868Z,9.89
2022-11-03T08:01:37.740Z,10.15
2022-11-03T08:04:07.906Z,10.39
2022-11-03T08:06:35.847Z,10.70
2022-11-03T08:09:06.057Z,10.85
2022-11-03T08:11:34.034Z,11.11
2022-11-03T08:14:01.870Z,11.09
2022-11-03T08:16:29.717Z,11.10
2022-11-03T08:18:57.637Z,11.22
2022-11-03T08:21:25.585Z,11.30
2022-11-03T08:23:53.447Z,11.33
2022-11-03T08:26:23.086Z,11.21
2022-11-03T08:28:51.361Z,10.92
2022-11-03T08:31:19.269Z,10.96
2022-11-03T08:33:47.335Z,11.47
2022-11-03T08:36:15.195Z,11.66
2022-11-03T08:38:43.148Z,11.71
2022-11-03T08:41:11.098Z,11.80
2022-11-03T08:43:40.369Z,11.99
2022-11-03T08:46:16.725Z,12.26
2022-11-03T08:48:46.536Z,12.20
2022-11-03T08:51:15.487Z,12.10
2022-11-03T08:53:43.723Z,12.30
2022-11-03T08:56:13.456Z,12.65
2022-11-03T08:58:45.029Z,13.14
2022-11-03T09:01:13.334Z,13.09
2022-11-03T09:03:42.107Z,13.15
2022-11-03T09:06:10.178Z,13.95
2022-11-03T09:11:26.440Z,13.67
2022-11-03T09:13:57.787Z,13.56
2022-11-03T09:16:26.432Z,13.74
2022-11-03T09:18:54.320Z,14.00
2022-11-03T09:21:22.393Z,13.85
2022-11-03T09:23:50.245Z,13.37
2022-11-03T09:26:18.094Z,12.74
2022-11-03T09:28:46.203Z,12.67
2022-11-03T09:31:15.501Z,12.58
2022-11-03T09:33:43.402Z,12.34
2022-11-03T09:36:11.568Z,12.24
2022-11-03T09:38:39.429Z,12.64
2022-11-03T09:41:18.689Z,13.13
2022-11-03T09:43:55.614Z,13.53
2022-11-03T09:46:26.620Z,13.80
2022-11-03T09:48:55.816Z,13.88
2022-11-03T09:51:25.499Z,13.43
2022-11-03T09:53:53.388Z,13.53
2022-11-03T09:56:24.204Z,13.43
2022-11-03T09:58:54.457Z,13.20
2022-11-03T10:01:25.000Z,13.67
2022-11-03T10:03:53.688Z,14.16
2022-11-03T10:06:21.646Z,14.09
2022-11-03T10:08:50.516Z,14.08
2022-11-03T10:11:18.906Z,13.82
2022-11-03T10:13:49.429Z,13.63
2022-11-03T10:16:21.547Z,13.48
2022-11-03T10:18:51.020Z,13.62
2022-11-03T10:21:20.680Z,13.70
2022-11-03T10:23:50.477Z,13.50
2022-11-03T10:26:20.144Z,13.29
2022-11-03T10:29:02.544Z,13.50
2022-11-03T10:31:37.174Z,13.75
2022-11-03T10:34:24.004Z,13.95
2022-11-03T10:36:52.213Z,13.78
2022-11-03T10:39:32.034Z,13.33
2022-11-03T10:42:01.110Z,13.31
2022-11-03T10:44:30.995Z,12.78
2022-11-03T10:47:00.614Z,12.82
2022-11-03T10:49:31.477Z,12.75
2022-11-03T10:52:17.319Z,12.61
2022-11-03T10:54:45.309Z,12.40
2022-11-03T10:57:13.383Z,12.10
2022-11-03T10:59:42.549Z,12.16
2022-11-03T11:02:18.426Z,11.89
2022-11-03T11:04:50.040Z,12.08
2022-11-03T11:07:23.332Z,12.31
2022-11-03T11:09:51.449Z,12.34
2022-11-03T11:12:22.534Z,12.38
2022-11-03T11:14:55.746Z,12.29
2022-11-03T11:17:44.916Z,12.39
2022-11-03T11:20:36.394Z,12.12
2022-11-03T11:23:46.759Z,12.19
2022-11-03T11:26:18.025Z,12.05
2022-11-03T11:28:47.794Z,11.85
2022-11-03T11:31:32.581Z,11.75
2022-11-03T11:34:37.579Z,11.68
2022-11-03T11:37:36.493Z,11.74
2022-11-03T11:40:13.035Z,11.94
2022-11-03T11:43:16.570Z,12.12
2022-11-03T11:46:21.496Z,12.24
2022-11-03T11:48:51.424Z,12.31
2022-11-03T11:51:19.335Z,12.30
2022-11-03T11:53:58.722Z,12.24
2022-11-03T11:56:44.173Z,11.80
2022-11-03T11:59:24.202Z,12.05
2022-11-03T12:01:54.553Z,12.01
2022-11-03T12:04:26.325Z,12.16
2022-11-03T12:06:55.993Z,12.10
2022-11-03T12:09:28.324Z,12.07
2022-11-03T12:12:00.837Z,12.08
2022-11-03T12:14:35.866Z,11.83
2022-11-03T12:17:34.512Z,11.81
2022-11-03T12:20:22.591Z,11.88
2022-11-03T12:22:52.190Z,12.07
2022-11-03T12:25:40.161Z,12.18
2022-11-03T12:28:08.663Z,12.31
2022-11-03T12:30:40.032Z,12.28
2022-11-03T12:33:08.903Z,12.22
2022-11-03T12:35:37.169Z,12.27
2022-11-03T12:38:06.522Z,12.28
2022-11-03T12:40:34.469Z,12.20
2022-11-03T12:43:02.461Z,12.31
2022-11-03T12:45:30.332Z,12.36
2022-11-03T12:47:58.171Z,12.27
2022-11-03T12:50:26.195Z,12.11
2022-11-03T12:52:54.189Z,12.10
2022-11-03T12:55:23.563Z,12.04
2022-11-03T12:57:51.611Z,11.92
2022-11-03T13:00:19.751Z,11.68
2022-11-03T13:02:47.965Z,11.71
2022-11-03T13:05:16.142Z,11.74
2022-11-03T13:07:44.360Z,11.64
2022-11-03T13:10:12.436Z,11.57
2022-11-03T13:12:41.840Z,11.56
2022-11-03T13:15:13.546Z,11.48
2022-11-03T13:20:29.648Z,11.31
2022-11-03T13:22:57.574Z,11.18
2022-11-03T13:25:25.517Z,11.20
2022-11-03T13:27:55.084Z,11.14
2022-11-03T13:30:23.391Z,10.99
2022-11-03T13:32:51.582Z,11.05
2022-11-03T13:35:19.702Z,10.96
2022-11-03T13:37:47.924Z,10.91
2022-11-03T13:40:50.411Z,10.88
2022-11-03T13:43:06.196Z,10.84
2022-11-03T13:45:34.353Z,10.75
2022-11-03T13:50:52.079Z,10.76
2022-11-03T13:56:11.529Z,9.98
2022-11-03T14:01:32.788Z,10.51
2022-11-03T14:06:49.104Z,10.50
2022-11-03T14:09:17.017Z,10.47
2022-11-03T14:12:02.590Z,10.45
2022-11-03T14:14:32.157Z,10.41
2022-11-03T14:17:00.066Z,10.34
2022-11-03T14:19:36.543Z,10.31
2022-11-03T14:22:07.935Z,10.30
2022-11-03T14:24:35.777Z,10.26
2022-11-03T14:27:03.612Z,10.26
2022-11-03T14:29:32.998Z,10.24
2022-11-03T14:32:00.858Z,9.91
2022-11-03T14:34:28.765Z,10.17
2022-11-03T14:36:56.829Z,10.16
2022-11-03T14:39:24.731Z,10.13
2022-11-03T14:42:03.506Z,10.11
2022-11-03T14:44:33.875Z,10.09
2022-11-03T14:47:02.769Z,10.07
2022-11-03T14:49:31.476Z,10.05
2022-11-03T14:51:59.982Z,10.04
2022-11-03T14:54:27.918Z,9.33
2022-11-03T14:56:55.945Z,9.91
2022-11-03T14:59:24.454Z,9.95
2022-11-03T15:01:54.271Z,9.94
2022-11-03T15:04:22.990Z,9.86
2022-11-03T15:06:51.425Z,9.90
2022-11-03T15:09:19.713Z,9.84
2022-11-03T15:11:48.029Z,9.84
2022-11-03T15:14:15.977Z,9.80
2022-11-03T15:16:46.287Z,9.77
2022-11-03T15:19:15.526Z,9.74
2022-11-03T15:21:43.489Z,9.65
2022-11-03T15:26:59.283Z,9.62
2022-11-03T15:29:27.163Z,9.52
2022-11-03T15:31:54.989Z,9.53
2022-11-03T15:34:24.409Z,9.46
2022-11-03T15:36:52.246Z,9.25
2022-11-03T15:39:20.112Z,9.36
2022-11-03T15:41:47.994Z,9.35
2022-11-03T15:44:15.769Z,9.21
2022-11-03T15:46:43.973Z,9.02
2022-11-03T15:49:11.829Z,9.22
2022-11-03T15:51:41.048Z,9.02
2022-11-03T15:54:09.321Z,9.07
2022-11-03T15:56:37.531Z,9.11
2022-11-03T15:59:05.368Z,9.09
2022-11-03T16:01:35.682Z,9.06
2022-11-03T16:04:05.974Z,9.03
2022-11-03T16:07:01.641Z,8.98
2022-11-03T16:09:26.769Z,9.18
2022-11-03T16:11:54.989Z,9.20
2022-11-03T16:14:23.020Z,9.19
2022-11-03T16:16:51.814Z,9.10
2022-11-03T16:19:20.131Z,9.16
2022-11-03T16:21:48.053Z,9.15
2022-11-03T16:24:16.223Z,9.13
2022-11-03T16:26:45.702Z,9.13
2022-11-03T16:29:13.582Z,9.13
2022-11-03T16:31:41.770Z,9.12
2022-11-03T16:34:10.069Z,8.87
2022-11-03T16:36:37.908Z,9.21
2022-11-03T16:39:06.097Z,9.26
2022-11-03T16:41:34.159Z,9.20
2022-11-03T16:44:03.697Z,9.35
2022-11-03T16:46:31.736Z,9.38
2022-11-03T16:51:27.424Z,9.36
2022-11-03T16:53:57.278Z,9.31
2022-11-03T16:56:25.383Z,9.32
2022-11-03T16:58:53.227Z,9.28
2022-11-03T17:01:22.884Z,9.26
2022-11-03T17:03:52.408Z,9.14
2022-11-03T17:06:20.253Z,9.21
2022-11-03T17:08:53.209Z,9.20
2022-11-03T17:11:36.081Z,8.97
2022-11-03T17:14:06.293Z,9.14
2022-11-03T17:16:36.069Z,9.26
2022-11-03T17:19:04.332Z,9.16
2022-11-03T17:21:32.543Z,9.22
2022-11-03T17:24:00.420Z,9.22
2022-11-03T17:26:42.909Z,9.21
2022-11-03T17:29:16.439Z,9.22
2022-11-03T17:31:45.947Z,9.18
2022-11-03T17:34:14.026Z,9.25
2022-11-03T17:36:42.000Z,9.24
2022-11-03T17:39:15.793Z,9.16
2022-11-03T17:41:44.015Z,9.16
2022-11-03T17:44:13.159Z,9.22
2022-11-03T17:46:41.257Z,9.22
2022-11-03T17:49:10.746Z,9.21
2022-11-03T17:51:43.244Z,9.11
2022-11-03T17:54:17.245Z,9.19
2022-11-03T17:56:45.373Z,9.16
2022-11-03T17:59:16.585Z,9.16
2022-11-03T18:01:45.430Z,9.15
2022-11-03T18:04:16.293Z,9.15
2022-11-03T18:06:45.499Z,9.16
2022-11-03T18:09:13.387Z,9.15
2022-11-03T18:12:01.597Z,8.93
2022-11-03T18:14:30.576Z,8.98
2022-11-03T18:16:59.108Z,9.18
2022-11-03T18:19:31.995Z,9.15
2022-11-03T18:22:00.163Z,9.07
2022-11-03T18:24:28.630Z,9.22
2022-11-03T18:26:56.468Z,9.04
2022-11-03T18:29:24.452Z,9.26
2022-11-03T18:31:52.399Z,9.27
2022-11-03T18:34:24.228Z,9.21
2022-11-03T18:36:54.486Z,9.27
2022-11-03T18:39:24.395Z,9.26
2022-11-03T18:41:52.515Z,9.16
2022-11-03T18:44:22.740Z,9.21
2022-11-03T18:46:52.359Z,9.15
2022-11-03T18:49:20.892Z,9.14
2022-11-03T18:51:50.584Z,8.90
2022-11-03T18:54:22.458Z,9.22
2022-11-03T18:56:53.105Z,9.22
2022-11-03T18:59:37.180Z,9.17
2022-11-03T19:02:16.201Z,9.23
2022-11-03T19:04:44.184Z,9.22
2022-11-03T19:07:13.935Z,9.03
2022-11-03T19:09:44.391Z,8.86
2022-11-03T19:12:15.587Z,9.23
2022-11-03T19:14:46.119Z,9.21
2022-11-03T19:17:22.878Z,8.91
2022-11-03T19:19:52.897Z,9.19
2022-11-03T19:22:22.794Z,9.17
2022-11-03T19:24:52.007Z,9.13
2022-11-03T19:27:25.945Z,9.14
2022-11-03T19:29:55.297Z,9.13
2022-11-03T19:32:27.716Z,8.42
2022-11-03T19:34:58.308Z,9.02
2022-11-03T19:37:31.012Z,9.05
2022-11-03T19:40:06.069Z,9.07
2022-11-03T19:42:36.690Z,9.08
2022-11-03T19:45:07.261Z,9.12
2022-11-03T19:47:39.714Z,9.16
2022-11-03T19:50:18.499Z,9.18
2022-11-03T19:52:46.709Z,9.27
2022-11-03T19:55:16.789Z,9.33
2022-11-03T19:57:44.972Z,8.85
2022-11-03T20:00:17.499Z,9.42
2022-11-03T20:02:45.897Z,9.42
2022-11-03T20:05:14.449Z,9.46
2022-11-03T20:07:44.376Z,9.62
2022-11-03T20:10:18.470Z,9.68
2022-11-03T20:12:47.231Z,9.71
2022-11-03T20:15:17.542Z,9.60
2022-11-03T20:17:46.083Z,9.75
2022-11-03T20:20:16.597Z,9.71
2022-11-03T20:22:47.614Z,9.80
2022-11-03T20:25:22.441Z,9.81
2022-11-03T20:27:51.477Z,9.55
2022-11-03T20:30:21.247Z,9.84
2022-11-03T20:32:50.133Z,9.85
2022-11-03T20:35:23.123Z,9.84
2022-11-03T20:37:59.565Z,9.82
2022-11-03T20:40:32.901Z,9.76
2022-11-03T20:43:03.446Z,9.72
2022-11-03T20:45:33.023Z,9.68
2022-11-03T20:48:00.937Z,9.48
2022-11-03T20:50:32.516Z,9.64
2022-11-03T20:53:00.555Z,9.62
2022-11-03T20:55:30.306Z,9.60
2022-11-03T20:57:59.610Z,9.33
2022-11-03T21:00:28.376Z,9.57
2022-11-03T21:02:57.486Z,9.55
2022-11-03T21:05:27.240Z,9.54
2022-11-03T21:07:56.220Z,9.23
2022-11-03T21:10:25.251Z,9.30
2022-11-03T21:12:55.205Z,9.48
2022-11-03T21:15:57.741Z,9.46
2022-11-03T21:18:48.392Z,9.41
2022-11-03T21:21:20.957Z,9.37
2022-11-03T21:23:49.307Z,9.32
2022-11-03T21:26:17.249Z,9.30
2022-11-03T21:28:48.818Z,9.29
2022-11-03T21:31:17.008Z,8.89
2022-11-03T21:33:44.867Z,9.26
2022-11-03T21:36:13.056Z,7.45
2022-11-03T21:38:41.072Z,8.85
2022-11-03T21:41:26.564Z,8.86
2022-11-03T21:44:13.829Z,9.13
2022-11-03T21:46:42.923Z,8.93
2022-11-03T21:49:29.001Z,9.15
2022-11-03T21:51:56.844Z,9.20
2022-11-03T21:54:24.910Z,8.85
2022-11-03T21:56:52.722Z,9.14
2022-11-03T21:59:22.002Z,9.11
2022-11-03T22:01:53.164Z,8.89
2022-11-03T22:04:21.471Z,8.50
2022-11-03T22:06:50.494Z,8.86
2022-11-03T22:09:18.956Z,8.97
2022-11-03T22:11:47.779Z,9.09
2022-11-03T22:14:16.011Z,9.06
2022-11-03T22:16:44.800Z,9.04
2022-11-03T22:19:32.327Z,9.04
2022-11-03T22:22:19.134Z,9.01
2022-11-03T22:25:04.386Z,9.02
2022-11-03T22:27:33.686Z,8.08
2022-11-03T22:30:19.948Z,8.89
2022-11-03T22:32:53.651Z,8.95
2022-11-03T22:35:40.255Z,8.85
2022-11-03T22:38:10.745Z,8.93
2022-11-03T22:40:57.426Z,8.92
2022-11-03T22:43:43.562Z,8.96
2022-11-03T22:46:12.761Z,8.87
2022-11-03T22:48:42.455Z,8.95
2022-11-03T22:51:13.210Z,8.87
2022-11-03T22:53:59.255Z,8.99
2022-11-03T22:56:29.155Z,8.95
2022-11-03T22:58:57.604Z,9.03
2022-11-03T23:01:27.800Z,9.04
2022-11-03T23:03:57.761Z,9.04
2022-11-03T23:06:27.821Z,9.03
2022-11-03T23:08:56.861Z,9.04
2022-11-03T23:11:25.927Z,9.08
2022-11-03T23:13:56.491Z,9.03
2022-11-03T23:16:26.132Z,9.05
2022-11-03T23:19:12.261Z,8.93
2022-11-03T23:21:41.906Z,9.02
2022-11-03T23:24:27.320Z,9.01
2022-11-03T23:26:55.262Z,8.68
2022-11-03T23:29:23.199Z,8.89
2022-11-03T23:31:51.084Z,8.98
2022-11-03T23:34:19.187Z,8.98
2022-11-03T23:36:48.695Z,8.99
2022-11-03T23:39:18.650Z,8.79
2022-11-03T23:41:46.884Z,8.93
2022-11-03T23:44:16.400Z,8.90
2022-11-03T23:47:02.889Z,8.78
2022-11-03T23:49:31.140Z,8.91
2022-11-03T23:52:00.719Z,8.89
2022-11-03T23:54:28.903Z,8.82
2022-11-03T23:57:14.613Z,8.88
2022-11-03T23:59:42.783Z,8.90
